sensor_id;sensor_type;location;lat;lon;timestamp;P1;durP1;ratioP1;P2;durP2;ratioP2
71048;SDS011;58704;53.358;-6.238;2024-03-25T00:00:38;11.52;;;2.65;;
71048;SDS011;58704;53.358;-6.238;2024-03-25T00:03:03;10.07;;;2.03;;
71048;SDS011;58704;53.358;-6.238;2024-03-25T00:05:28;12.40;;;2.10;;
71048;SDS011;58704;53.358;-6.238;2024-03-25T00:07:54;10.95;;;2.20;;
71048;SDS011;58704;53.358;-6.238;2024-03-25T00:10:19;7.33;;;2.10;;
71048;SDS011;58704;53.358;-6.238;2024-03-25T00:12:46;9.40;;;1.53;;
71048;SDS011;58704;53.358;-6.238;2024-03-25T00:15:11;8.30;;;1.83;;
71048;SDS011;58704;53.358;-6.238;2024-03-25T00:17:36;7.90;;;1.77;;
71048;SDS011;58704;53.358;-6.238;2024-03-25T00:20:01;7.53;;;1.90;;
71048;SDS011;58704;53.358;-6.238;2024-03-25T00:22:30;5.70;;;1.92;;
71048;SDS011;58704;53.358;-6.238;2024-03-25T00:24:56;8.57;;;2.57;;
71048;SDS011;58704;53.358;-6.238;2024-03-25T00:27:21;7.73;;;2.30;;
71048;SDS011;58704;53.358;-6.238;2024-03-25T00:29:46;9.50;;;2.20;;
71048;SDS011;58704;53.358;-6.238;2024-03-25T00:32:11;11.33;;;2.30;;
71048;SDS011;58704;53.358;-6.238;2024-03-25T00:34:37;8.43;;;2.30;;
71048;SDS011;58704;53.358;-6.238;2024-03-25T00:37:02;4.70;;;2.70;;
71048;SDS011;58704;53.358;-6.238;2024-03-25T00:39:29;6.13;;;2.53;;
71048;SDS011;58704;53.358;-6.238;2024-03-25T00:41:57;4.38;;;2.40;;
71048;SDS011;58704;53.358;-6.238;2024-03-25T00:44:22;5.83;;;2.67;;
71048;SDS011;58704;53.358;-6.238;2024-03-25T00:46:47;7.10;;;2.67;;
71048;SDS011;58704;53.358;-6.238;2024-03-25T00:49:12;9.27;;;2.53;;
71048;SDS011;58704;53.358;-6.238;2024-03-25T00:51:38;2.97;;;2.20;;
71048;SDS011;58704;53.358;-6.238;2024-03-25T00:54:03;3.50;;;2.60;;
71048;SDS011;58704;53.358;-6.238;2024-03-25T00:56:29;4.53;;;2.53;;
71048;SDS011;58704;53.358;-6.238;2024-03-25T00:58:54;7.10;;;2.77;;
71048;SDS011;58704;53.358;-6.238;2024-03-25T01:01:22;5.95;;;3.50;;
71048;SDS011;58704;53.358;-6.238;2024-03-25T01:03:47;7.50;;;4.60;;
71048;SDS011;58704;53.358;-6.238;2024-03-25T01:06:13;10.47;;;4.23;;
71048;SDS011;58704;53.358;-6.238;2024-03-25T01:08:38;6.10;;;4.07;;
71048;SDS011;58704;53.358;-6.238;2024-03-25T01:11:03;6.00;;;3.70;;
71048;SDS011;58704;53.358;-6.238;2024-03-25T01:13:29;5.95;;;3.58;;
71048;SDS011;58704;53.358;-6.238;2024-03-25T01:15:55;5.33;;;2.93;;
71048;SDS011;58704;53.358;-6.238;2024-03-25T01:18:20;3.43;;;1.90;;
71048;SDS011;58704;53.358;-6.238;2024-03-25T01:20:45;4.23;;;2.40;;
71048;SDS011;58704;53.358;-6.238;2024-03-25T01:23:10;3.80;;;2.50;;
71048;SDS011;58704;53.358;-6.238;2024-03-25T01:25:36;6.43;;;2.77;;
71048;SDS011;58704;53.358;-6.238;2024-03-25T01:28:01;4.63;;;3.07;;
71048;SDS011;58704;53.358;-6.238;2024-03-25T01:30:27;3.88;;;2.33;;
71048;SDS011;58704;53.358;-6.238;2024-03-25T01:32:53;5.33;;;2.80;;
71048;SDS011;58704;53.358;-6.238;2024-03-25T01:35:19;5.73;;;2.63;;
71048;SDS011;58704;53.358;-6.238;2024-03-25T01:37:44;4.23;;;2.50;;
71048;SDS011;58704;53.358;-6.238;2024-03-25T01:40:09;3.40;;;1.70;;
71048;SDS011;58704;53.358;-6.238;2024-03-25T01:42:36;3.30;;;1.60;;
71048;SDS011;58704;53.358;-6.238;2024-03-25T01:45:01;6.47;;;1.90;;
71048;SDS011;58704;53.358;-6.238;2024-03-25T01:47:28;2.90;;;1.52;;
71048;SDS011;58704;53.358;-6.238;2024-03-25T01:49:53;7.10;;;1.70;;
71048;SDS011;58704;53.358;-6.238;2024-03-25T01:52:21;2.63;;;1.80;;
71048;SDS011;58704;53.358;-6.238;2024-03-25T01:54:47;3.72;;;1.65;;
71048;SDS011;58704;53.358;-6.238;2024-03-25T01:57:13;4.23;;;1.53;;
71048;SDS011;58704;53.358;-6.238;2024-03-25T01:59:38;3.43;;;1.13;;
71048;SDS011;58704;53.358;-6.238;2024-03-25T02:02:04;2.15;;;1.00;;
71048;SDS011;58704;53.358;-6.238;2024-03-25T02:04:29;1.57;;;1.07;;
71048;SDS011;58704;53.358;-6.238;2024-03-25T02:06:55;1.50;;;1.00;;
71048;SDS011;58704;53.358;-6.238;2024-03-25T02:09:23;1.10;;;1.00;;
71048;SDS011;58704;53.358;-6.238;2024-03-25T02:11:48;1.57;;;1.20;;
71048;SDS011;58704;53.358;-6.238;2024-03-25T02:14:13;1.05;;;1.05;;
71048;SDS011;58704;53.358;-6.238;2024-03-25T02:16:39;2.53;;;1.23;;
71048;SDS011;58704;53.358;-6.238;2024-03-25T02:19:04;1.30;;;1.20;;
71048;SDS011;58704;53.358;-6.238;2024-03-25T02:21:29;2.10;;;1.03;;
71048;SDS011;58704;53.358;-6.238;2024-03-25T02:23:56;1.15;;;0.90;;
71048;SDS011;58704;53.358;-6.238;2024-03-25T02:26:22;2.42;;;1.15;;
71048;SDS011;58704;53.358;-6.238;2024-03-25T02:28:48;3.23;;;1.10;;
71048;SDS011;58704;53.358;-6.238;2024-03-25T02:31:13;1.20;;;1.10;;
71048;SDS011;58704;53.358;-6.238;2024-03-25T02:33:39;4.10;;;0.90;;
71048;SDS011;58704;53.358;-6.238;2024-03-25T02:36:04;1.30;;;0.90;;
71048;SDS011;58704;53.358;-6.238;2024-03-25T02:38:29;2.53;;;0.97;;
71048;SDS011;58704;53.358;-6.238;2024-03-25T02:40:55;5.23;;;1.10;;
71048;SDS011;58704;53.358;-6.238;2024-03-25T02:43:20;2.33;;;1.00;;
71048;SDS011;58704;53.358;-6.238;2024-03-25T02:45:46;3.75;;;1.25;;
71048;SDS011;58704;53.358;-6.238;2024-03-25T02:48:11;2.13;;;1.20;;
71048;SDS011;58704;53.358;-6.238;2024-03-25T02:50:37;3.10;;;1.33;;
71048;SDS011;58704;53.358;-6.238;2024-03-25T02:53:02;4.30;;;1.10;;
71048;SDS011;58704;53.358;-6.238;2024-03-25T02:55:27;1.67;;;1.17;;
71048;SDS011;58704;53.358;-6.238;2024-03-25T02:57:52;1.10;;;1.00;;
71048;SDS011;58704;53.358;-6.238;2024-03-25T03:00:18;1.57;;;1.10;;
71048;SDS011;58704;53.358;-6.238;2024-03-25T03:02:43;1.80;;;0.87;;
71048;SDS011;58704;53.358;-6.238;2024-03-25T03:05:08;1.60;;;1.07;;
71048;SDS011;58704;53.358;-6.238;2024-03-25T03:07:33;3.10;;;1.40;;
71048;SDS011;58704;53.358;-6.238;2024-03-25T03:09:59;2.43;;;1.70;;
71048;SDS011;58704;53.358;-6.238;2024-03-25T03:12:24;2.77;;;1.70;;
71048;SDS011;58704;53.358;-6.238;2024-03-25T03:14:49;3.07;;;1.63;;
71048;SDS011;58704;53.358;-6.238;2024-03-25T03:17:15;6.60;;;1.70;;
71048;SDS011;58704;53.358;-6.238;2024-03-25T03:19:40;2.57;;;2.10;;
71048;SDS011;58704;53.358;-6.238;2024-03-25T03:22:05;6.13;;;2.20;;
71048;SDS011;58704;53.358;-6.238;2024-03-25T03:24:30;4.07;;;1.93;;
71048;SDS011;58704;53.358;-6.238;2024-03-25T03:26:56;2.33;;;1.53;;
71048;SDS011;58704;53.358;-6.238;2024-03-25T03:29:21;3.27;;;1.20;;
71048;SDS011;58704;53.358;-6.238;2024-03-25T03:31:46;1.80;;;1.20;;
71048;SDS011;58704;53.358;-6.238;2024-03-25T03:34:11;1.87;;;1.50;;
71048;SDS011;58704;53.358;-6.238;2024-03-25T03:36:37;2.73;;;1.30;;
71048;SDS011;58704;53.358;-6.238;2024-03-25T03:39:02;2.83;;;1.47;;
71048;SDS011;58704;53.358;-6.238;2024-03-25T03:41:28;2.65;;;1.58;;
71048;SDS011;58704;53.358;-6.238;2024-03-25T03:43:53;1.43;;;1.33;;
71048;SDS011;58704;53.358;-6.238;2024-03-25T03:46:19;3.50;;;1.20;;
71048;SDS011;58704;53.358;-6.238;2024-03-25T03:48:44;4.70;;;1.17;;
71048;SDS011;58704;53.358;-6.238;2024-03-25T03:51:09;1.73;;;0.97;;
71048;SDS011;58704;53.358;-6.238;2024-03-25T03:53:35;1.77;;;0.90;;
71048;SDS011;58704;53.358;-6.238;2024-03-25T03:56:01;1.80;;;1.13;;
71048;SDS011;58704;53.358;-6.238;2024-03-25T03:58:32;3.22;;;1.27;;
71048;SDS011;58704;53.358;-6.238;2024-03-25T04:00:58;5.43;;;1.58;;
71048;SDS011;58704;53.358;-6.238;2024-03-25T04:03:24;5.57;;;1.30;;
71048;SDS011;58704;53.358;-6.238;2024-03-25T04:05:49;4.90;;;1.70;;
71048;SDS011;58704;53.358;-6.238;2024-03-25T04:08:14;5.97;;;1.77;;
71048;SDS011;58704;53.358;-6.238;2024-03-25T04:10:40;7.13;;;1.90;;
71048;SDS011;58704;53.358;-6.238;2024-03-25T04:13:05;5.65;;;2.13;;
71048;SDS011;58704;53.358;-6.238;2024-03-25T04:15:34;6.17;;;1.90;;
71048;SDS011;58704;53.358;-6.238;2024-03-25T04:17:59;8.15;;;1.88;;
71048;SDS011;58704;53.358;-6.238;2024-03-25T04:20:26;11.18;;;1.90;;
71048;SDS011;58704;53.358;-6.238;2024-03-25T04:22:51;7.53;;;2.00;;
71048;SDS011;58704;53.358;-6.238;2024-03-25T04:25:16;9.82;;;1.65;;
71048;SDS011;58704;53.358;-6.238;2024-03-25T04:27:43;5.23;;;1.60;;
71048;SDS011;58704;53.358;-6.238;2024-03-25T04:30:08;7.82;;;1.88;;
71048;SDS011;58704;53.358;-6.238;2024-03-25T04:32:34;7.23;;;1.80;;
71048;SDS011;58704;53.358;-6.238;2024-03-25T04:35:00;4.50;;;2.10;;
71048;SDS011;58704;53.358;-6.238;2024-03-25T04:37:25;4.40;;;1.67;;
71048;SDS011;58704;53.358;-6.238;2024-03-25T04:39:51;9.18;;;1.92;;
71048;SDS011;58704;53.358;-6.238;2024-03-25T04:42:16;9.33;;;1.70;;
71048;SDS011;58704;53.358;-6.238;2024-03-25T04:44:41;5.77;;;1.43;;
71048;SDS011;58704;53.358;-6.238;2024-03-25T04:47:06;6.17;;;1.70;;
71048;SDS011;58704;53.358;-6.238;2024-03-25T04:49:32;3.30;;;1.57;;
71048;SDS011;58704;53.358;-6.238;2024-03-25T04:51:57;4.03;;;1.80;;
71048;SDS011;58704;53.358;-6.238;2024-03-25T04:54:22;2.37;;;1.20;;
71048;SDS011;58704;53.358;-6.238;2024-03-25T04:56:47;3.90;;;1.10;;
71048;SDS011;58704;53.358;-6.238;2024-03-25T04:59:13;5.20;;;1.20;;
71048;SDS011;58704;53.358;-6.238;2024-03-25T05:01:38;1.80;;;0.73;;
71048;SDS011;58704;53.358;-6.238;2024-03-25T05:04:03;2.60;;;1.00;;
71048;SDS011;58704;53.358;-6.238;2024-03-25T05:06:28;2.87;;;1.10;;
71048;SDS011;58704;53.358;-6.238;2024-03-25T05:08:54;2.60;;;1.00;;
71048;SDS011;58704;53.358;-6.238;2024-03-25T05:11:19;3.53;;;0.80;;
71048;SDS011;58704;53.358;-6.238;2024-03-25T05:13:44;4.63;;;1.00;;
71048;SDS011;58704;53.358;-6.238;2024-03-25T05:16:10;2.90;;;0.90;;
71048;SDS011;58704;53.358;-6.238;2024-03-25T05:18:35;2.75;;;0.90;;
71048;SDS011;58704;53.358;-6.238;2024-03-25T05:21:01;2.23;;;0.90;;
71048;SDS011;58704;53.358;-6.238;2024-03-25T05:23:26;7.60;;;1.43;;
71048;SDS011;58704;53.358;-6.238;2024-03-25T05:25:52;1.93;;;0.83;;
71048;SDS011;58704;53.358;-6.238;2024-03-25T05:28:17;3.00;;;1.10;;
71048;SDS011;58704;53.358;-6.238;2024-03-25T05:30:42;3.30;;;1.37;;
71048;SDS011;58704;53.358;-6.238;2024-03-25T05:33:07;6.87;;;1.10;;
71048;SDS011;58704;53.358;-6.238;2024-03-25T05:35:33;3.70;;;1.20;;
71048;SDS011;58704;53.358;-6.238;2024-03-25T05:38:01;4.27;;;1.07;;
71048;SDS011;58704;53.358;-6.238;2024-03-25T05:40:28;7.43;;;1.60;;
71048;SDS011;58704;53.358;-6.238;2024-03-25T05:42:53;2.17;;;1.43;;
71048;SDS011;58704;53.358;-6.238;2024-03-25T05:45:18;5.30;;;1.37;;
71048;SDS011;58704;53.358;-6.238;2024-03-25T05:47:44;7.67;;;1.30;;
71048;SDS011;58704;53.358;-6.238;2024-03-25T05:50:09;7.43;;;1.50;;
71048;SDS011;58704;53.358;-6.238;2024-03-25T05:52:34;22.20;;;1.70;;
71048;SDS011;58704;53.358;-6.238;2024-03-25T05:55:00;9.18;;;1.85;;
71048;SDS011;58704;53.358;-6.238;2024-03-25T05:57:25;10.67;;;1.90;;
71048;SDS011;58704;53.358;-6.238;2024-03-25T05:59:51;10.30;;;1.77;;
71048;SDS011;58704;53.358;-6.238;2024-03-25T06:02:16;6.73;;;1.73;;
71048;SDS011;58704;53.358;-6.238;2024-03-25T06:04:42;9.60;;;1.90;;
71048;SDS011;58704;53.358;-6.238;2024-03-25T06:07:07;6.60;;;2.00;;
71048;SDS011;58704;53.358;-6.238;2024-03-25T06:09:33;11.77;;;1.80;;
71048;SDS011;58704;53.358;-6.238;2024-03-25T06:11:58;16.63;;;2.10;;
71048;SDS011;58704;53.358;-6.238;2024-03-25T06:14:23;11.47;;;2.73;;
71048;SDS011;58704;53.358;-6.238;2024-03-25T06:16:49;7.23;;;1.90;;
71048;SDS011;58704;53.358;-6.238;2024-03-25T06:19:14;5.93;;;1.40;;
71048;SDS011;58704;53.358;-6.238;2024-03-25T06:21:39;6.32;;;1.55;;
71048;SDS011;58704;53.358;-6.238;2024-03-25T06:24:05;6.27;;;1.47;;
71048;SDS011;58704;53.358;-6.238;2024-03-25T06:26:30;5.53;;;1.47;;
71048;SDS011;58704;53.358;-6.238;2024-03-25T06:28:55;6.73;;;1.90;;
71048;SDS011;58704;53.358;-6.238;2024-03-25T06:31:20;6.23;;;1.07;;
71048;SDS011;58704;53.358;-6.238;2024-03-25T06:34:04;15.27;;;2.40;;
71048;SDS011;58704;53.358;-6.238;2024-03-25T06:36:47;7.32;;;1.40;;
71048;SDS011;58704;53.358;-6.238;2024-03-25T06:39:13;10.55;;;1.35;;
71048;SDS011;58704;53.358;-6.238;2024-03-25T06:41:38;7.00;;;1.40;;
71048;SDS011;58704;53.358;-6.238;2024-03-25T06:44:04;8.20;;;1.57;;
71048;SDS011;58704;53.358;-6.238;2024-03-25T06:46:30;15.10;;;1.75;;
71048;SDS011;58704;53.358;-6.238;2024-03-25T06:48:55;8.93;;;1.80;;
71048;SDS011;58704;53.358;-6.238;2024-03-25T06:51:20;13.17;;;1.90;;
71048;SDS011;58704;53.358;-6.238;2024-03-25T06:53:45;12.30;;;1.93;;
71048;SDS011;58704;53.358;-6.238;2024-03-25T06:56:11;8.40;;;1.80;;
71048;SDS011;58704;53.358;-6.238;2024-03-25T06:58:36;7.60;;;1.47;;
71048;SDS011;58704;53.358;-6.238;2024-03-25T07:01:08;10.57;;;1.37;;
71048;SDS011;58704;53.358;-6.238;2024-03-25T07:03:33;15.82;;;2.17;;
71048;SDS011;58704;53.358;-6.238;2024-03-25T07:05:59;13.97;;;2.50;;
71048;SDS011;58704;53.358;-6.238;2024-03-25T07:08:25;15.63;;;2.42;;
71048;SDS011;58704;53.358;-6.238;2024-03-25T07:10:50;10.53;;;1.37;;
71048;SDS011;58704;53.358;-6.238;2024-03-25T07:13:16;14.07;;;1.60;;
71048;SDS011;58704;53.358;-6.238;2024-03-25T07:15:42;11.18;;;1.60;;
71048;SDS011;58704;53.358;-6.238;2024-03-25T07:18:07;7.63;;;1.55;;
71048;SDS011;58704;53.358;-6.238;2024-03-25T07:20:35;5.30;;;1.17;;
71048;SDS011;58704;53.358;-6.238;2024-03-25T07:23:00;8.77;;;1.45;;
71048;SDS011;58704;53.358;-6.238;2024-03-25T07:25:26;6.53;;;1.47;;
71048;SDS011;58704;53.358;-6.238;2024-03-25T07:27:51;10.90;;;1.60;;
71048;SDS011;58704;53.358;-6.238;2024-03-25T07:30:17;15.38;;;1.65;;
71048;SDS011;58704;53.358;-6.238;2024-03-25T07:32:42;9.63;;;1.47;;
71048;SDS011;58704;53.358;-6.238;2024-03-25T07:35:10;13.43;;;1.58;;
71048;SDS011;58704;53.358;-6.238;2024-03-25T07:37:36;7.63;;;1.80;;
71048;SDS011;58704;53.358;-6.238;2024-03-25T07:40:01;13.43;;;1.85;;
71048;SDS011;58704;53.358;-6.238;2024-03-25T07:42:28;8.45;;;1.60;;
71048;SDS011;58704;53.358;-6.238;2024-03-25T07:44:54;7.90;;;1.33;;
71048;SDS011;58704;53.358;-6.238;2024-03-25T07:47:19;10.77;;;2.30;;
71048;SDS011;58704;53.358;-6.238;2024-03-25T07:49:44;11.30;;;2.20;;
71048;SDS011;58704;53.358;-6.238;2024-03-25T07:52:09;16.93;;;1.90;;
71048;SDS011;58704;53.358;-6.238;2024-03-25T07:54:35;8.63;;;2.10;;
71048;SDS011;58704;53.358;-6.238;2024-03-25T07:57:02;11.48;;;1.70;;
71048;SDS011;58704;53.358;-6.238;2024-03-25T07:59:28;21.80;;;2.00;;
71048;SDS011;58704;53.358;-6.238;2024-03-25T08:01:54;13.77;;;1.67;;
71048;SDS011;58704;53.358;-6.238;2024-03-25T08:04:19;15.77;;;2.53;;
71048;SDS011;58704;53.358;-6.238;2024-03-25T08:06:44;15.07;;;1.77;;
71048;SDS011;58704;53.358;-6.238;2024-03-25T08:09:09;12.07;;;1.80;;
71048;SDS011;58704;53.358;-6.238;2024-03-25T08:11:35;16.90;;;2.87;;
71048;SDS011;58704;53.358;-6.238;2024-03-25T08:14:00;17.87;;;1.63;;
71048;SDS011;58704;53.358;-6.238;2024-03-25T08:16:25;10.53;;;1.93;;
71048;SDS011;58704;53.358;-6.238;2024-03-25T08:18:51;20.27;;;2.67;;
71048;SDS011;58704;53.358;-6.238;2024-03-25T08:21:16;16.07;;;2.23;;
71048;SDS011;58704;53.358;-6.238;2024-03-25T08:23:44;15.07;;;2.13;;
71048;SDS011;58704;53.358;-6.238;2024-03-25T08:26:09;15.52;;;2.30;;
71048;SDS011;58704;53.358;-6.238;2024-03-25T08:28:34;9.90;;;1.73;;
71048;SDS011;58704;53.358;-6.238;2024-03-25T08:31:00;19.87;;;2.13;;
71048;SDS011;58704;53.358;-6.238;2024-03-25T08:33:25;18.13;;;2.30;;
71048;SDS011;58704;53.358;-6.238;2024-03-25T08:35:50;16.40;;;1.77;;
71048;SDS011;58704;53.358;-6.238;2024-03-25T08:38:15;17.20;;;2.50;;
71048;SDS011;58704;53.358;-6.238;2024-03-25T08:40:41;12.97;;;1.70;;
71048;SDS011;58704;53.358;-6.238;2024-03-25T08:43:06;9.83;;;2.20;;
71048;SDS011;58704;53.358;-6.238;2024-03-25T08:45:31;13.27;;;1.67;;
71048;SDS011;58704;53.358;-6.238;2024-03-25T08:47:57;19.00;;;3.00;;
71048;SDS011;58704;53.358;-6.238;2024-03-25T08:50:22;17.57;;;2.10;;
71048;SDS011;58704;53.358;-6.238;2024-03-25T08:52:47;25.30;;;2.60;;
71048;SDS011;58704;53.358;-6.238;2024-03-25T08:55:12;12.30;;;2.10;;
71048;SDS011;58704;53.358;-6.238;2024-03-25T08:57:38;18.63;;;2.07;;
71048;SDS011;58704;53.358;-6.238;2024-03-25T09:00:03;10.27;;;1.93;;
71048;SDS011;58704;53.358;-6.238;2024-03-25T09:02:29;14.88;;;2.30;;
71048;SDS011;58704;53.358;-6.238;2024-03-25T09:04:54;10.57;;;2.20;;
71048;SDS011;58704;53.358;-6.238;2024-03-25T09:07:19;20.83;;;2.83;;
71048;SDS011;58704;53.358;-6.238;2024-03-25T09:09:45;22.87;;;2.70;;
71048;SDS011;58704;53.358;-6.238;2024-03-25T09:12:29;17.13;;;2.40;;
71048;SDS011;58704;53.358;-6.238;2024-03-25T09:14:54;17.27;;;2.63;;
71048;SDS011;58704;53.358;-6.238;2024-03-25T09:17:19;17.37;;;3.03;;
71048;SDS011;58704;53.358;-6.238;2024-03-25T09:19:44;16.47;;;2.63;;
71048;SDS011;58704;53.358;-6.238;2024-03-25T09:22:10;15.68;;;2.47;;
71048;SDS011;58704;53.358;-6.238;2024-03-25T09:24:35;20.53;;;2.63;;
71048;SDS011;58704;53.358;-6.238;2024-03-25T09:27:01;17.07;;;1.93;;
71048;SDS011;58704;53.358;-6.238;2024-03-25T09:29:26;17.70;;;2.20;;
71048;SDS011;58704;53.358;-6.238;2024-03-25T09:31:52;22.23;;;2.37;;
71048;SDS011;58704;53.358;-6.238;2024-03-25T09:34:17;24.10;;;2.93;;
71048;SDS011;58704;53.358;-6.238;2024-03-25T09:36:42;17.13;;;2.07;;
71048;SDS011;58704;53.358;-6.238;2024-03-25T09:39:07;15.93;;;3.13;;
71048;SDS011;58704;53.358;-6.238;2024-03-25T09:41:34;21.43;;;3.33;;
71048;SDS011;58704;53.358;-6.238;2024-03-25T09:44:01;21.08;;;3.28;;
71048;SDS011;58704;53.358;-6.238;2024-03-25T09:46:29;25.37;;;4.03;;
71048;SDS011;58704;53.358;-6.238;2024-03-25T09:48:54;19.08;;;3.83;;
71048;SDS011;58704;53.358;-6.238;2024-03-25T09:51:20;26.07;;;4.67;;
71048;SDS011;58704;53.358;-6.238;2024-03-25T09:53:45;25.90;;;3.83;;
71048;SDS011;58704;53.358;-6.238;2024-03-25T09:56:11;25.13;;;3.77;;
71048;SDS011;58704;53.358;-6.238;2024-03-25T09:58:37;18.70;;;3.53;;
71048;SDS011;58704;53.358;-6.238;2024-03-25T10:01:03;23.23;;;3.47;;
71048;SDS011;58704;53.358;-6.238;2024-03-25T10:03:28;18.63;;;3.13;;
71048;SDS011;58704;53.358;-6.238;2024-03-25T10:05:53;27.70;;;3.33;;
71048;SDS011;58704;53.358;-6.238;2024-03-25T10:08:21;21.33;;;2.63;;
71048;SDS011;58704;53.358;-6.238;2024-03-25T10:10:47;16.70;;;2.90;;
71048;SDS011;58704;53.358;-6.238;2024-03-25T10:13:12;19.33;;;2.83;;
71048;SDS011;58704;53.358;-6.238;2024-03-25T10:15:37;16.53;;;3.60;;
71048;SDS011;58704;53.358;-6.238;2024-03-25T10:18:02;9.27;;;2.30;;
71048;SDS011;58704;53.358;-6.238;2024-03-25T10:20:28;13.20;;;1.97;;
71048;SDS011;58704;53.358;-6.238;2024-03-25T10:22:53;11.17;;;1.87;;
71048;SDS011;58704;53.358;-6.238;2024-03-25T10:25:37;11.37;;;1.80;;
71048;SDS011;58704;53.358;-6.238;2024-03-25T10:28:02;13.40;;;1.80;;
71048;SDS011;58704;53.358;-6.238;2024-03-25T10:30:28;12.73;;;2.40;;
71048;SDS011;58704;53.358;-6.238;2024-03-25T10:35:28;9.17;;;1.97;;
71048;SDS011;58704;53.358;-6.238;2024-03-25T10:37:55;6.35;;;2.13;;
71048;SDS011;58704;53.358;-6.238;2024-03-25T10:40:21;10.25;;;1.63;;
71048;SDS011;58704;53.358;-6.238;2024-03-25T10:42:47;8.18;;;1.65;;
71048;SDS011;58704;53.358;-6.238;2024-03-25T10:45:12;12.67;;;1.87;;
71048;SDS011;58704;53.358;-6.238;2024-03-25T10:47:38;8.63;;;1.47;;
71048;SDS011;58704;53.358;-6.238;2024-03-25T10:50:07;11.73;;;2.00;;
71048;SDS011;58704;53.358;-6.238;2024-03-25T10:52:34;6.68;;;1.65;;
71048;SDS011;58704;53.358;-6.238;2024-03-25T10:55:00;4.20;;;1.00;;
71048;SDS011;58704;53.358;-6.238;2024-03-25T10:57:25;5.00;;;1.03;;
71048;SDS011;58704;53.358;-6.238;2024-03-25T10:59:51;4.80;;;0.90;;
71048;SDS011;58704;53.358;-6.238;2024-03-25T11:02:16;6.70;;;1.25;;
71048;SDS011;58704;53.358;-6.238;2024-03-25T11:04:45;10.35;;;1.60;;
71048;SDS011;58704;53.358;-6.238;2024-03-25T11:07:11;7.90;;;1.50;;
71048;SDS011;58704;53.358;-6.238;2024-03-25T11:09:36;14.40;;;2.23;;
71048;SDS011;58704;53.358;-6.238;2024-03-25T11:12:02;6.13;;;1.20;;
71048;SDS011;58704;53.358;-6.238;2024-03-25T11:14:27;4.40;;;1.07;;
71048;SDS011;58704;53.358;-6.238;2024-03-25T11:16:53;7.25;;;1.13;;
71048;SDS011;58704;53.358;-6.238;2024-03-25T11:19:18;10.07;;;1.40;;
71048;SDS011;58704;53.358;-6.238;2024-03-25T11:21:44;7.17;;;1.27;;
71048;SDS011;58704;53.358;-6.238;2024-03-25T11:24:09;7.40;;;1.83;;
71048;SDS011;58704;53.358;-6.238;2024-03-25T11:26:34;10.73;;;1.53;;
71048;SDS011;58704;53.358;-6.238;2024-03-25T11:29:02;9.80;;;2.13;;
71048;SDS011;58704;53.358;-6.238;2024-03-25T11:31:27;10.80;;;1.60;;
71048;SDS011;58704;53.358;-6.238;2024-03-25T11:33:54;11.05;;;1.50;;
71048;SDS011;58704;53.358;-6.238;2024-03-25T11:36:20;15.63;;;2.10;;
71048;SDS011;58704;53.358;-6.238;2024-03-25T11:38:57;10.45;;;1.65;;
71048;SDS011;58704;53.358;-6.238;2024-03-25T11:41:22;5.88;;;1.55;;
71048;SDS011;58704;53.358;-6.238;2024-03-25T11:43:47;8.87;;;2.03;;
71048;SDS011;58704;53.358;-6.238;2024-03-25T11:46:16;5.90;;;1.70;;
71048;SDS011;58704;53.358;-6.238;2024-03-25T11:48:42;14.95;;;2.28;;
71048;SDS011;58704;53.358;-6.238;2024-03-25T11:51:07;6.83;;;1.60;;
71048;SDS011;58704;53.358;-6.238;2024-03-25T11:53:35;7.97;;;1.73;;
71048;SDS011;58704;53.358;-6.238;2024-03-25T11:56:01;6.70;;;2.10;;
71048;SDS011;58704;53.358;-6.238;2024-03-25T11:58:26;15.13;;;2.07;;
71048;SDS011;58704;53.358;-6.238;2024-03-25T12:00:51;7.73;;;1.77;;
71048;SDS011;58704;53.358;-6.238;2024-03-25T12:03:17;6.60;;;1.70;;
71048;SDS011;58704;53.358;-6.238;2024-03-25T12:05:45;9.35;;;1.98;;
71048;SDS011;58704;53.358;-6.238;2024-03-25T12:08:10;8.03;;;1.97;;
71048;SDS011;58704;53.358;-6.238;2024-03-25T12:10:37;6.85;;;1.75;;
71048;SDS011;58704;53.358;-6.238;2024-03-25T12:13:20;10.23;;;1.77;;
71048;SDS011;58704;53.358;-6.238;2024-03-25T12:15:46;14.07;;;2.13;;
71048;SDS011;58704;53.358;-6.238;2024-03-25T12:18:12;16.53;;;1.80;;
71048;SDS011;58704;53.358;-6.238;2024-03-25T12:20:38;7.05;;;1.75;;
71048;SDS011;58704;53.358;-6.238;2024-03-25T12:23:04;10.27;;;1.80;;
71048;SDS011;58704;53.358;-6.238;2024-03-25T12:25:29;11.23;;;1.52;;
71048;SDS011;58704;53.358;-6.238;2024-03-25T12:27:54;12.57;;;2.00;;
71048;SDS011;58704;53.358;-6.238;2024-03-25T12:30:19;16.93;;;2.63;;
71048;SDS011;58704;53.358;-6.238;2024-03-25T12:32:45;15.67;;;2.50;;
71048;SDS011;58704;53.358;-6.238;2024-03-25T12:35:14;12.60;;;2.08;;
71048;SDS011;58704;53.358;-6.238;2024-03-25T12:37:43;10.67;;;1.50;;
71048;SDS011;58704;53.358;-6.238;2024-03-25T12:40:09;12.63;;;1.98;;
71048;SDS011;58704;53.358;-6.238;2024-03-25T12:42:35;11.60;;;2.55;;
71048;SDS011;58704;53.358;-6.238;2024-03-25T12:45:01;11.60;;;2.20;;
71048;SDS011;58704;53.358;-6.238;2024-03-25T12:47:28;10.65;;;1.67;;
71048;SDS011;58704;53.358;-6.238;2024-03-25T12:49:53;19.30;;;3.47;;
71048;SDS011;58704;53.358;-6.238;2024-03-25T12:52:18;13.57;;;2.00;;
71048;SDS011;58704;53.358;-6.238;2024-03-25T12:54:44;17.37;;;2.43;;
71048;SDS011;58704;53.358;-6.238;2024-03-25T12:57:09;21.17;;;2.47;;
71048;SDS011;58704;53.358;-6.238;2024-03-25T12:59:34;16.80;;;2.30;;
71048;SDS011;58704;53.358;-6.238;2024-03-25T13:02:00;16.33;;;2.57;;
71048;SDS011;58704;53.358;-6.238;2024-03-25T13:04:25;15.03;;;2.90;;
71048;SDS011;58704;53.358;-6.238;2024-03-25T13:06:50;14.87;;;1.90;;
71048;SDS011;58704;53.358;-6.238;2024-03-25T13:09:16;17.90;;;2.10;;
71048;SDS011;58704;53.358;-6.238;2024-03-25T13:11:41;13.40;;;3.20;;
71048;SDS011;58704;53.358;-6.238;2024-03-25T13:14:06;11.80;;;2.33;;
71048;SDS011;58704;53.358;-6.238;2024-03-25T13:16:35;13.87;;;1.67;;
71048;SDS011;58704;53.358;-6.238;2024-03-25T13:19:00;9.93;;;2.10;;
71048;SDS011;58704;53.358;-6.238;2024-03-25T13:21:25;10.37;;;1.83;;
71048;SDS011;58704;53.358;-6.238;2024-03-25T13:23:54;13.47;;;1.80;;
71048;SDS011;58704;53.358;-6.238;2024-03-25T13:26:19;11.25;;;2.38;;
71048;SDS011;58704;53.358;-6.238;2024-03-25T13:28:44;15.50;;;2.47;;
71048;SDS011;58704;53.358;-6.238;2024-03-25T13:31:10;19.17;;;2.53;;
71048;SDS011;58704;53.358;-6.238;2024-03-25T13:33:35;13.33;;;2.10;;
71048;SDS011;58704;53.358;-6.238;2024-03-25T13:36:01;7.22;;;2.13;;
71048;SDS011;58704;53.358;-6.238;2024-03-25T13:38:26;12.50;;;2.63;;
71048;SDS011;58704;53.358;-6.238;2024-03-25T13:40:52;19.97;;;3.23;;
71048;SDS011;58704;53.358;-6.238;2024-03-25T13:43:17;16.83;;;2.83;;
71048;SDS011;58704;53.358;-6.238;2024-03-25T13:45:46;22.20;;;4.43;;
71048;SDS011;58704;53.358;-6.238;2024-03-25T13:48:11;15.57;;;2.83;;
71048;SDS011;58704;53.358;-6.238;2024-03-25T13:50:36;15.27;;;2.73;;
71048;SDS011;58704;53.358;-6.238;2024-03-25T13:53:02;16.57;;;2.70;;
71048;SDS011;58704;53.358;-6.238;2024-03-25T13:55:27;15.67;;;2.93;;
71048;SDS011;58704;53.358;-6.238;2024-03-25T13:57:53;24.30;;;2.80;;
71048;SDS011;58704;53.358;-6.238;2024-03-25T14:00:18;14.60;;;2.50;;
71048;SDS011;58704;53.358;-6.238;2024-03-25T14:02:43;11.70;;;2.63;;
71048;SDS011;58704;53.358;-6.238;2024-03-25T14:05:08;20.00;;;2.97;;
71048;SDS011;58704;53.358;-6.238;2024-03-25T14:07:34;18.50;;;3.47;;
71048;SDS011;58704;53.358;-6.238;2024-03-25T14:09:59;10.90;;;2.40;;
71048;SDS011;58704;53.358;-6.238;2024-03-25T14:12:24;12.40;;;3.17;;
71048;SDS011;58704;53.358;-6.238;2024-03-25T14:14:50;22.37;;;3.90;;
71048;SDS011;58704;53.358;-6.238;2024-03-25T14:17:15;20.58;;;4.47;;
71048;SDS011;58704;53.358;-6.238;2024-03-25T14:19:41;17.60;;;3.07;;
71048;SDS011;58704;53.358;-6.238;2024-03-25T14:22:06;21.23;;;3.43;;